Time;durP1;ratioP1;P1;durP2;ratioP2;P2;SDS_P1;SDS_P2;PMS_P1;PMS_P2;Temp;Humidity;BMP_temperature;BMP_pressure;BME280_temperature;BME280_humidity;BME280_pressure;Samples;Min_cycle;Max_cycle;Signal;HPM_P1;HPM_P2
2022/05/05 00:04:21;;;;;;;0.70;0.50;;;17.70;41.90;19.90;94026.00;;;;10441392;28;45301;-72
2022/05/05 00:09:42;;;;;;;0.90;0.60;;;17.70;41.90;19.90;94034.00;;;;10440543;28;45161;-74
2022/05/05 00:15:04;;;;;;;0.70;0.47;;;17.70;41.90;19.90;94026.00;;;;10440913;28;45120;-74
2022/05/05 00:20:26;;;;;;;0.50;0.40;;;17.70;41.90;19.80;94033.00;;;;10441438;28;46153;-72
2022/05/05 00:25:46;;;;;;;0.65;0.50;;;17.70;41.90;19.90;94034.00;;;;10440863;28;45874;-73
2022/05/05 00:31:06;;;;;;;0.40;0.40;;;17.70;41.90;19.80;94015.00;;;;10440910;28;45172;-73
2022/05/05 00:36:29;;;;;;;0.35;0.28;;;17.60;41.90;19.80;94034.00;;;;10441581;28;45167;-71
2022/05/05 00:41:50;;;;;;;0.70;0.40;;;17.60;41.90;19.80;94020.00;;;;10440728;28;45421;-71
2022/05/05 00:47:16;;;;;;;0.75;0.50;;;17.60;41.90;19.80;94028.00;;;;10440791;28;45190;-72
2022/05/05 00:52:38;;;;;;;0.45;0.32;;;17.60;41.90;19.80;94018.00;;;;10440187;28;45767;-73
2022/05/05 00:57:58;;;;;;;0.82;0.50;;;17.60;41.90;19.80;94015.00;;;;10438724;28;45395;-72
2022/05/05 01:03:19;;;;;;;0.43;0.35;;;17.60;41.90;19.80;94014.00;;;;10434875;28;45291;-72
2022/05/05 01:08:42;;;;;;;0.70;0.40;;;17.60;41.90;19.80;94006.00;;;;10438640;28;45223;-72
2022/05/05 01:14:03;;;;;;;0.60;0.50;;;17.60;42.00;19.70;94006.00;;;;10439617;28;45125;-71
2022/05/05 01:19:23;;;;;;;0.50;0.40;;;17.60;42.00;19.70;94017.00;;;;10439010;28;45699;-72
2022/05/05 01:30:24;;;;;;;0.77;0.50;;;17.60;42.10;19.70;93998.00;;;;10439425;28;45312;-71
2022/05/05 01:35:46;;;;;;;0.45;0.45;;;17.60;42.00;19.70;94015.00;;;;10439949;28;45126;-72
2022/05/05 01:41:10;;;;;;;0.70;0.47;;;17.60;42.10;19.70;94009.00;;;;10438559;28;45262;-71
2022/05/05 01:46:31;;;;;;;0.60;0.50;;;17.50;42.10;19.70;94017.00;;;;10439209;28;45157;-72
2022/05/05 01:51:51;;;;;;;0.88;0.43;;;17.60;42.10;19.70;94023.00;;;;10438315;28;45263;-72
2022/05/05 01:57:13;;;;;;;0.60;0.50;;;17.50;42.10;19.70;94021.00;;;;10437941;28;45852;-72
2022/05/05 02:02:34;;;;;;;0.40;0.40;;;17.50;42.10;19.70;94006.00;;;;10438035;28;45081;-73
2022/05/05 02:07:54;;;;;;;0.40;0.40;;;17.50;42.20;19.70;94009.00;;;;10438141;28;45241;-72
2022/05/05 02:13:16;;;;;;;0.75;0.32;;;17.50;42.20;19.60;93996.00;;;;10438732;28;45146;-72
2022/05/05 02:18:37;;;;;;;0.43;0.40;;;17.50;42.30;19.60;94005.00;;;;10437324;28;45808;-72
2022/05/05 02:23:57;;;;;;;0.30;0.30;;;17.50;42.30;19.60;94011.00;;;;10437536;28;45192;-73
2022/05/05 02:29:19;;;;;;;0.50;0.40;;;17.50;42.30;19.60;94020.00;;;;10437566;28;45180;-74
2022/05/05 02:34:40;;;;;;;0.35;0.35;;;17.50;42.30;19.60;94017.00;;;;10443649;28;45208;-72
2022/05/05 02:40:00;;;;;;;0.65;0.47;;;17.50;42.40;19.60;93999.00;;;;10444021;28;45664;-74
2022/05/05 02:45:22;;;;;;;0.47;0.43;;;17.50;42.40;19.60;94011.00;;;;10444443;28;45187;-74
2022/05/05 02:50:43;;;;;;;0.35;0.35;;;17.50;42.40;19.60;94004.00;;;;10443494;28;45114;-73
2022/05/05 02:56:05;;;;;;;0.40;0.40;;;17.40;42.40;19.60;93996.00;;;;10443834;28;45113;-72
2022/05/05 03:01:27;;;;;;;0.38;0.38;;;17.40;42.40;19.60;93996.00;;;;10443873;28;45674;-71
2022/05/05 03:06:47;;;;;;;0.95;0.60;;;17.40;42.50;19.60;93983.00;;;;10444634;28;45880;-71
2022/05/05 03:12:10;;;;;;;0.60;0.40;;;17.40;42.50;19.60;93998.00;;;;10444560;28;45094;-71
2022/05/05 03:17:33;;;;;;;0.30;0.30;;;17.40;42.60;19.50;93994.00;;;;10443916;28;45373;-71
2022/05/05 03:22:53;;;;;;;0.40;0.32;;;17.40;42.60;19.50;93988.00;;;;10444175;28;45693;-71
2022/05/05 03:28:14;;;;;;;0.32;0.30;;;17.40;42.70;19.50;93991.00;;;;10442980;28;45341;-72
2022/05/05 03:33:37;;;;;;;0.20;0.20;;;17.40;42.60;19.50;93990.00;;;;10443859;28;45117;-73
2022/05/05 03:38:57;;;;;;;0.75;0.35;;;17.40;42.70;19.50;93979.00;;;;10441967;28;45167;-71
2022/05/05 03:44:18;;;;;;;0.50;0.43;;;17.40;42.70;19.50;93988.00;;;;10442083;28;45160;-72
2022/05/05 03:49:40;;;;;;;0.47;0.47;;;17.40;42.70;19.50;93992.00;;;;10441985;28;45770;-72
2022/05/05 03:55:00;;;;;;;0.93;0.50;;;17.40;42.80;19.50;93991.00;;;;10438860;28;45694;-73
2022/05/05 04:00:22;;;;;;;0.50;0.47;;;17.40;42.90;19.50;94005.00;;;;10440914;28;45244;-73
2022/05/05 04:05:44;;;;;;;0.50;0.40;;;17.40;42.90;19.50;94007.00;;;;10441476;28;45112;-72
2022/05/05 04:11:06;;;;;;;0.40;0.40;;;17.40;42.90;19.60;94000.00;;;;10441685;28;45120;-72
2022/05/05 04:16:27;;;;;;;0.32;0.32;;;17.40;42.80;19.60;94010.00;;;;10441858;28;45781;-72
2022/05/05 04:21:49;;;;;;;0.45;0.40;;;17.50;42.60;19.70;94009.00;;;;10441405;28;45889;-72
2022/05/05 04:27:09;;;;;;;0.52;0.38;;;17.60;42.70;19.70;94009.00;;;;10440660;28;45263;-73
2022/05/05 04:32:31;;;;;;;0.40;0.30;;;17.60;42.60;19.80;94013.00;;;;10440617;28;45843;-72
2022/05/05 04:37:53;;;;;;;0.30;0.30;;;17.70;42.70;19.80;94010.00;;;;10440588;28;45114;-71
2022/05/05 04:43:14;;;;;;;0.35;0.30;;;17.70;42.70;19.80;94019.00;;;;10441086;28;45191;-73
2022/05/05 04:48:35;;;;;;;0.40;0.40;;;17.80;42.80;19.80;94024.00;;;;10440789;28;45119;-71
2022/05/05 04:53:56;;;;;;;0.40;0.40;;;17.80;42.90;19.90;94023.00;;;;10440727;28;45819;-73
2022/05/05 04:59:17;;;;;;;0.43;0.43;;;17.80;42.90;19.90;94025.00;;;;10439497;28;45140;-74
2022/05/05 05:04:37;;;;;;;0.50;0.50;;;17.80;42.90;19.90;94035.00;;;;10440615;28;45321;-73
2022/05/05 05:09:59;;;;;;;0.50;0.50;;;17.80;42.70;19.90;94037.00;;;;10439754;28;45260;-73
2022/05/05 05:15:20;;;;;;;1.05;0.50;;;17.90;42.90;20.00;94029.00;;;;10439268;28;45166;-73
2022/05/05 05:20:41;;;;;;;0.40;0.40;;;17.90;42.90;20.00;94025.00;;;;10439014;28;45385;-72
2022/05/05 05:26:03;;;;;;;0.32;0.30;;;17.90;42.90;20.00;94032.00;;;;10439123;28;45184;-73
2022/05/05 05:31:23;;;;;;;0.68;0.50;;;17.90;43.00;20.00;94030.00;;;;10438316;28;45118;-73
2022/05/05 05:36:44;;;;;;;0.70;0.60;;;17.90;42.80;20.00;94037.00;;;;10438804;28;45379;-73
2022/05/05 05:42:08;;;;;;;0.55;0.55;;;17.90;43.00;20.00;94032.00;;;;10438067;28;45191;-73
2022/05/05 05:47:28;;;;;;;0.77;0.52;;;17.90;43.10;20.00;94040.00;;;;10438099;28;45773;-74
2022/05/05 05:52:49;;;;;;;0.90;0.60;;;17.90;43.00;20.10;94046.00;;;;10437837;28;45173;-74
2022/05/05 05:58:11;;;;;;;0.70;0.60;;;18.00;43.10;20.10;94052.00;;;;10437548;28;45128;-74
2022/05/05 06:09:10;;;;;;;1.30;0.68;;;18.00;42.90;20.10;94051.00;;;;10436617;28;45379;-74
2022/05/05 06:14:32;;;;;;;2.95;0.77;;;18.00;42.90;20.10;94055.00;;;;10436978;28;45198;-74
2022/05/05 06:19:54;;;;;;;1.48;0.75;;;18.00;42.90;20.10;94062.00;;;;10435843;28;45267;-74
2022/05/05 06:25:19;;;;;;;0.60;0.60;;;18.00;42.80;20.20;94051.00;;;;10437300;28;45364;-71
2022/05/05 06:30:40;;;;;;;1.55;0.70;;;18.00;42.90;20.20;94064.00;;;;10438352;28;45904;-72
2022/05/05 06:36:01;;;;;;;0.63;0.63;;;18.00;42.90;20.20;94055.00;;;;10439964;28;45377;-73
2022/05/05 06:41:22;;;;;;;0.93;0.70;;;18.10;43.00;20.20;94064.00;;;;10436013;28;45744;-72
2022/05/05 06:46:44;;;;;;;1.15;0.77;;;18.10;42.90;20.20;94092.00;;;;10435612;28;45820;-72
2022/05/05 06:52:06;;;;;;;1.40;0.80;;;18.10;43.00;20.20;94095.00;;;;10435887;28;45181;-73
2022/05/05 06:57:27;;;;;;;0.85;0.68;;;18.10;43.40;20.20;94094.00;;;;10436289;28;45709;-73
2022/05/05 07:02:49;;;;;;;1.58;0.63;;;18.10;43.30;20.30;94086.00;;;;10434871;28;45661;-65
2022/05/05 07:08:09;;;;;;;1.23;0.60;;;18.10;43.20;20.30;94097.00;;;;10434436;28;45186;-70
2022/05/05 07:13:30;;;;;;;0.80;0.70;;;18.20;43.10;20.30;94089.00;;;;10435889;28;45173;-70
2022/05/05 07:18:52;;;;;;;3.55;1.27;;;18.20;43.50;20.30;94077.00;;;;10446190;28;45284;-70
2022/05/05 07:24:12;;;;;;;5.20;1.80;;;18.20;43.90;20.30;94093.00;;;;10442449;28;45911;-70
2022/05/05 07:29:34;;;;;;;3.83;1.83;;;18.20;44.00;20.30;94093.00;;;;10441935;28;45685;-69
2022/05/05 07:34:56;;;;;;;3.28;1.38;;;18.30;44.20;20.40;94099.00;;;;10469970;28;45776;-67
2022/05/05 07:40:17;;;;;;;3.33;1.65;;;18.30;44.00;20.40;94092.00;;;;10482942;28;45268;-70
2022/05/05 07:45:37;;;;;;;1.83;1.13;;;18.30;43.60;20.30;94106.00;;;;10482988;28;45041;-69
2022/05/05 07:50:59;;;;;;;2.22;1.02;;;18.30;42.50;20.40;94106.00;;;;10483018;28;45751;-68
2022/05/05 07:56:19;;;;;;;2.25;0.90;;;18.30;43.00;20.50;94108.00;;;;10482733;28;45261;-69
2022/05/05 08:01:40;;;;;;;1.95;1.00;;;18.30;43.10;20.50;94105.00;;;;10454233;28;44948;-68
2022/05/05 08:07:02;;;;;;;2.30;0.93;;;18.40;43.20;20.50;94091.00;;;;10440486;28;45192;-71
2022/05/05 08:12:25;;;;;;;1.50;1.00;;;18.40;43.20;20.50;94099.00;;;;10440529;28;45176;-71
2022/05/05 08:17:47;;;;;;;2.33;1.10;;;18.40;43.30;20.50;94084.00;;;;10440549;28;45126;-70
2022/05/05 08:23:09;;;;;;;1.95;1.15;;;18.40;43.40;20.50;94099.00;;;;10442053;28;45399;-71
2022/05/05 08:28:32;;;;;;;2.10;0.93;;;18.40;43.40;20.50;94091.00;;;;10477221;28;45255;-70
2022/05/05 08:34:01;;;;;;;1.50;0.80;;;18.40;43.50;20.50;94087.00;;;;10440949;28;45908;-70
2022/05/05 08:39:23;;;;;;;1.52;0.85;;;18.40;43.50;20.50;94111.00;;;;10439515;28;45264;-70
2022/05/05 08:44:44;;;;;;;1.38;0.98;;;18.40;43.50;20.50;94106.00;;;;10440066;28;45457;-70
2022/05/05 08:50:08;;;;;;;1.13;0.98;;;18.40;44.70;20.40;94110.00;;;;10438928;28;45104;-69
2022/05/05 08:55:32;;;;;;;1.52;0.63;;;18.30;45.30;20.50;94110.00;;;;10439874;28;45298;-68
2022/05/05 09:00:53;;;;;;;2.50;1.33;;;18.40;44.60;20.50;94114.00;;;;10438859;28;45325;-66
2022/05/05 09:06:13;;;;;;;1.80;1.15;;;18.40;44.40;20.60;94115.00;;;;10438748;28;45744;-66
2022/05/05 09:11:35;;;;;;;1.73;0.98;;;18.40;44.20;20.60;94114.00;;;;10438987;28;45304;-65
2022/05/05 09:17:04;;;;;;;2.08;1.00;;;18.50;44.20;20.60;94104.00;;;;10438052;28;45279;-65
2022/05/05 09:22:26;;;;;;;1.92;1.10;;;18.50;44.10;20.60;94125.00;;;;10441612;28;45373;-64
2022/05/05 09:27:51;;;;;;;4.40;1.00;;;18.50;44.00;20.60;94127.00;;;;10479766;28;45839;-69
2022/05/05 09:33:16;;;;;;;2.17;0.90;;;18.60;43.80;20.60;94127.00;;;;10480087;28;45177;-70
2022/05/05 09:38:56;;;;;;;2.15;1.02;;;18.50;43.80;20.70;94132.00;;;;10479788;28;45847;-70
2022/05/05 09:44:21;;;;;;;1.70;0.93;;;18.50;43.70;20.60;94137.00;;;;10479189;28;45736;-70
2022/05/05 09:49:42;;;;;;;1.70;0.90;;;18.50;43.60;20.60;94138.00;;;;10479094;28;45811;-70
2022/05/05 10:01:05;;;;;;;1.00;0.82;;;18.50;43.50;20.60;94137.00;;;;10408565;28;45397;-70
2022/05/05 10:06:29;;;;;;;1.77;0.98;;;18.50;43.50;20.60;94129.00;;;;10478804;28;45195;-70
2022/05/05 10:11:50;;;;;;;1.33;0.90;;;18.50;43.50;20.70;94138.00;;;;10478362;28;45211;-70
2022/05/05 10:17:15;;;;;;;1.27;0.90;;;18.50;43.50;20.60;94147.00;;;;10478018;28;45678;-70
2022/05/05 10:22:42;;;;;;;1.63;0.88;;;18.50;43.50;20.60;94153.00;;;;10478567;28;45252;-70
2022/05/05 10:28:03;;;;;;;1.38;0.85;;;18.50;43.50;20.60;94148.00;;;;10478180;28;45173;-70
2022/05/05 10:34:00;;;;;;;1.80;0.85;;;18.50;43.50;20.70;94149.00;;;;10478657;28;45315;-70
2022/05/05 10:39:22;;;;;;;1.92;0.98;;;18.50;43.40;20.60;94143.00;;;;10477997;28;45155;-71
2022/05/05 10:45:10;;;;;;;1.77;1.08;;;18.50;43.40;20.60;94151.00;;;;10478221;28;45247;-70
2022/05/05 10:50:34;;;;;;;1.83;1.02;;;18.50;43.50;20.70;94159.00;;;;10477876;28;45207;-71
2022/05/05 10:55:54;;;;;;;1.35;1.00;;;18.50;43.60;20.70;94157.00;;;;10484826;28;45353;-71
2022/05/05 11:01:15;;;;;;;1.67;0.98;;;18.50;43.50;20.60;94155.00;;;;10484263;28;45681;-70
2022/05/05 11:06:38;;;;;;;1.48;1.00;;;18.50;43.50;20.70;94159.00;;;;10485297;28;45154;-70
2022/05/05 11:12:15;;;;;;;3.25;1.40;;;18.50;43.60;20.70;94155.00;;;;10485744;28;45195;-69
2022/05/05 11:23:45;;;;;;;1.45;1.10;;;18.50;43.60;20.70;94156.00;;;;10457910;28;45210;-69
2022/05/05 11:29:16;;;;;;;1.45;1.08;;;18.50;43.60;20.70;94150.00;;;;10470097;22;45131;-60
2022/05/05 11:34:39;;;;;;;1.30;1.00;;;18.50;43.50;20.70;94137.00;;;;10449600;28;45700;-60
2022/05/05 11:40:02;;;;;;;1.20;0.90;;;18.50;43.60;20.70;94148.00;;;;10440855;28;45161;-60
2022/05/05 11:45:23;;;;;;;1.40;1.00;;;18.50;43.60;20.70;94153.00;;;;10440810;28;45226;-60
2022/05/05 11:50:44;;;;;;;1.17;0.80;;;18.50;43.60;20.70;94144.00;;;;10440628;28;45182;-60
2022/05/05 11:56:13;;;;;;;2.00;0.95;;;18.50;43.60;20.70;94133.00;;;;10440612;28;45511;-60
2022/05/05 12:01:42;;;;;;;1.77;0.90;;;18.50;43.60;20.70;94128.00;;;;10440345;28;45172;-60
2022/05/05 12:07:04;;;;;;;1.98;0.90;;;18.50;43.60;20.70;94135.00;;;;10439036;28;45185;-60
2022/05/05 12:12:28;;;;;;;0.90;0.68;;;18.50;43.60;20.70;94125.00;;;;10440117;28;45210;-60
2022/05/05 12:17:52;;;;;;;1.27;0.90;;;18.50;43.60;20.70;94129.00;;;;10439639;28;45384;-60
2022/05/05 12:23:13;;;;;;;1.20;0.90;;;18.50;43.60;20.70;94118.00;;;;10439770;28;45818;-60
2022/05/05 12:28:53;;;;;;;1.27;0.85;;;18.50;43.60;20.70;94132.00;;;;10438801;28;45216;-60
2022/05/05 12:34:25;;;;;;;1.08;0.80;;;18.50;43.70;20.70;94120.00;;;;10439264;28;45710;-60
2022/05/05 12:39:57;;;;;;;1.10;0.90;;;18.50;43.50;20.70;94111.00;;;;10439376;28;45124;-60
2022/05/05 12:45:24;;;;;;;0.75;0.70;;;18.50;43.60;20.70;94123.00;;;;10439037;28;45173;-61
2022/05/05 12:50:47;;;;;;;0.93;0.70;;;18.60;43.70;20.70;94104.00;;;;10438764;28;45248;-60
2022/05/05 13:01:52;;;;;;;0.90;0.60;;;18.60;43.60;20.70;94100.00;;;;10450956;28;45427;-60
2022/05/05 13:07:13;;;;;;;2.05;0.98;;;18.60;43.60;20.70;94098.00;;;;10437839;28;45784;-60
2022/05/05 13:12:33;;;;;;;1.25;0.75;;;18.60;43.60;20.70;94106.00;;;;10477019;28;45759;-60
2022/05/05 13:17:55;;;;;;;1.42;0.60;;;18.60;43.70;20.70;94118.00;;;;10478287;28;46083;-61
2022/05/05 13:23:16;;;;;;;1.60;0.60;;;18.60;43.70;20.70;94110.00;;;;10479814;28;45736;-62
2022/05/05 13:28:36;;;;;;;0.80;0.60;;;18.60;43.80;20.80;94111.00;;;;10478635;28;45196;-64
2022/05/05 13:33:58;;;;;;;0.77;0.60;;;18.70;43.90;20.80;94105.00;;;;10479609;28;45240;-63
2022/05/05 13:39:19;;;;;;;1.85;0.77;;;18.70;43.90;20.80;94104.00;;;;10462807;28;45307;-60
2022/05/05 13:44:39;;;;;;;4.35;0.82;;;18.70;44.70;20.80;94102.00;;;;10442716;28;45897;-65
2022/05/05 13:50:01;;;;;;;3.55;1.00;;;18.70;45.50;20.80;94097.00;;;;10456047;28;45529;-63
2022/05/05 13:55:22;;;;;;;1.73;0.85;;;18.70;46.20;20.70;94089.00;;;;10436775;28;45186;-64
2022/05/05 14:00:42;;;;;;;1.75;0.80;;;18.70;46.80;20.80;94083.00;;;;10435803;28;45199;-65
2022/05/05 14:06:04;;;;;;;1.77;0.82;;;18.70;47.30;20.80;94092.00;;;;10442476;28;45250;-62
2022/05/05 14:17:04;;;;;;;1.50;0.90;;;18.70;47.20;20.90;94087.00;;;;10445380;28;45669;-62
2022/05/05 14:22:26;;;;;;;1.05;0.60;;;18.70;47.60;20.90;94087.00;;;;10441412;28;45252;-63
2022/05/05 14:27:47;;;;;;;1.45;0.88;;;18.80;47.90;20.90;94101.00;;;;10445781;28;45181;-63
2022/05/05 14:33:08;;;;;;;1.27;0.70;;;18.80;47.90;20.90;94103.00;;;;10440651;28;45228;-63
2022/05/05 14:38:30;;;;;;;1.65;0.70;;;18.80;48.10;20.90;94102.00;;;;10444698;28;45241;-63
2022/05/05 14:43:51;;;;;;;0.73;0.50;;;18.80;48.20;20.90;94101.00;;;;10434878;28;45761;-62
2022/05/05 14:49:11;;;;;;;0.63;0.40;;;18.80;48.30;20.90;94105.00;;;;10434174;28;45170;-63
2022/05/05 14:54:35;;;;;;;1.63;0.60;;;18.80;48.20;20.80;94104.00;;;;10434672;28;45749;-64
2022/05/05 14:59:57;;;;;;;1.00;0.60;;;18.80;48.40;20.50;94106.00;;;;10431199;28;45665;-63
2022/05/05 15:05:17;;;;;;;2.38;0.57;;;18.20;49.40;20.40;94111.00;;;;10430841;28;45384;-64
2022/05/05 15:10:40;;;;;;;1.73;0.47;;;18.10;49.30;20.50;94112.00;;;;10440743;28;45682;-64
2022/05/05 15:16:00;;;;;;;1.17;0.52;;;18.20;49.30;20.60;94123.00;;;;10434704;28;45232;-64
2022/05/05 15:21:21;;;;;;;0.70;0.40;;;18.30;49.00;20.60;94123.00;;;;10431879;28;45863;-61
2022/05/05 15:26:43;;;;;;;0.40;0.30;;;18.30;48.40;20.80;94117.00;;;;10472037;28;45218;-64
2022/05/05 15:32:05;;;;;;;0.50;0.20;;;18.60;48.00;20.90;94108.00;;;;10472940;28;45774;-63
2022/05/05 15:37:27;;;;;;;0.47;0.30;;;18.70;47.30;21.00;94111.00;;;;10470916;28;45164;-64
2022/05/05 15:42:49;;;;;;;0.52;0.40;;;18.80;46.80;21.00;94110.00;;;;10481882;28;45235;-63
2022/05/05 15:48:10;;;;;;;0.85;0.30;;;18.90;46.50;21.00;94120.00;;;;10448588;28;45753;-64
2022/05/05 15:53:31;;;;;;;1.15;0.32;;;18.90;46.20;21.10;94124.00;;;;10462725;28;45258;-63
2022/05/05 15:58:53;;;;;;;0.60;0.30;;;18.90;45.90;21.10;94126.00;;;;10482442;28;45192;-64
2022/05/05 16:04:13;;;;;;;0.75;0.30;;;19.00;45.70;21.10;94130.00;;;;10453845;28;45492;-63
2022/05/05 16:09:35;;;;;;;0.22;0.20;;;19.00;45.50;21.10;94129.00;;;;10451994;28;45113;-64
2022/05/05 16:14:56;;;;;;;0.15;0.15;;;19.00;45.30;21.10;94135.00;;;;10456940;28;45753;-63
2022/05/05 16:20:20;;;;;;;0.57;0.40;;;19.00;45.10;21.10;94145.00;;;;10439675;28;45768;-63
2022/05/05 16:31:20;;;;;;;0.50;0.35;;;19.00;44.80;21.20;94132.00;;;;10442129;28;45760;-63
2022/05/05 16:36:41;;;;;;;0.30;0.22;;;19.00;44.70;21.20;94139.00;;;;10468364;28;45856;-63
2022/05/05 16:42:01;;;;;;;0.30;0.30;;;19.00;44.50;21.20;94138.00;;;;10480711;28;45193;-64
2022/05/05 16:47:23;;;;;;;0.47;0.25;;;19.00;44.40;21.20;94133.00;;;;10480926;28;45266;-64
2022/05/05 16:52:44;;;;;;;0.32;0.30;;;19.00;44.30;21.20;94145.00;;;;10480763;28;45174;-63
2022/05/05 16:58:05;;;;;;;0.20;0.20;;;19.00;44.10;21.20;94146.00;;;;10479218;28;45211;-64
2022/05/05 17:03:27;;;;;;;0.40;0.30;;;19.00;44.00;21.20;94143.00;;;;10476502;28;45284;-64
2022/05/05 17:08:47;;;;;;;0.52;0.30;;;19.10;44.00;21.20;94138.00;;;;10479635;28;45744;-64
2022/05/05 17:14:09;;;;;;;0.25;0.20;;;19.10;43.80;21.20;94138.00;;;;10479488;28;45500;-64
2022/05/05 17:19:31;;;;;;;0.40;0.30;;;19.10;43.80;21.10;94154.00;;;;10479342;28;45181;-63
2022/05/05 17:24:51;;;;;;;0.50;0.30;;;19.10;43.70;21.20;94157.00;;;;10473724;28;45840;-64
2022/05/05 17:30:13;;;;;;;0.50;0.50;;;19.10;43.60;21.10;94136.00;;;;10469289;22;45196;-63
2022/05/05 17:35:34;;;;;;;0.70;0.50;;;19.00;44.80;21.00;94166.00;;;;10436912;28;45837;-64
2022/05/05 17:40:55;;;;;;;0.52;0.40;;;18.90;45.30;21.00;94151.00;;;;10414715;28;45114;-63
2022/05/05 17:51:56;;;;;;;0.77;0.52;;;18.80;45.50;20.90;94137.00;;;;10395173;28;45203;-64
2022/05/05 17:57:18;;;;;;;0.70;0.50;;;18.80;45.50;20.90;94162.00;;;;10394377;28;45170;-63
2022/05/05 18:02:39;;;;;;;0.75;0.60;;;18.80;45.60;20.90;94181.00;;;;10394211;28;45709;-64
2022/05/05 18:08:01;;;;;;;0.60;0.55;;;18.70;45.60;20.90;94188.00;;;;10393981;28;45387;-63
2022/05/05 18:13:23;;;;;;;0.75;0.60;;;18.70;45.60;20.90;94195.00;;;;10394161;28;45912;-62
2022/05/05 18:18:45;;;;;;;0.50;0.50;;;18.70;45.60;20.80;94206.00;;;;10393962;28;45301;-64
2022/05/05 18:24:09;;;;;;;0.40;0.40;;;18.70;45.60;20.80;94212.00;;;;10394405;28;45172;-63
2022/05/05 18:29:30;;;;;;;0.80;0.60;;;18.70;45.60;20.80;94213.00;;;;10393613;28;45853;-64
2022/05/05 18:34:50;;;;;;;0.73;0.70;;;18.70;45.60;20.80;94211.00;;;;10393950;28;45210;-63
2022/05/05 18:40:13;;;;;;;0.68;0.50;;;18.70;45.50;20.80;94230.00;;;;10387967;28;45965;-64
2022/05/05 18:45:36;;;;;;;0.82;0.57;;;18.70;45.50;20.80;94229.00;;;;10395241;28;45242;-63
2022/05/05 18:50:56;;;;;;;0.93;0.70;;;18.70;45.60;20.80;94242.00;;;;10396750;28;45173;-65
2022/05/05 18:56:18;;;;;;;0.50;0.50;;;18.70;45.50;20.80;94236.00;;;;10427985;28;45839;-62
2022/05/05 19:01:39;;;;;;;0.55;0.50;;;18.70;45.60;20.80;94255.00;;;;10411208;28;45189;-63
2022/05/05 19:07:00;;;;;;;0.77;0.63;;;18.70;45.50;20.80;94260.00;;;;10417040;28;45261;-63
2022/05/05 19:12:24;;;;;;;0.70;0.60;;;18.70;45.50;20.80;94253.00;;;;10346721;28;45251;-64
2022/05/05 19:17:45;;;;;;;0.60;0.50;;;18.70;45.50;20.80;94272.00;;;;10357583;28;45401;-63
2022/05/05 19:23:06;;;;;;;0.68;0.65;;;18.60;45.40;20.80;94265.00;;;;10359277;28;45846;-63
2022/05/05 19:28:28;;;;;;;2.08;0.70;;;18.60;45.40;20.80;94290.00;;;;10358550;28;45106;-63
2022/05/05 19:33:49;;;;;;;0.70;0.60;;;18.60;45.40;20.80;94292.00;;;;10358706;28;45138;-63
2022/05/05 19:39:09;;;;;;;1.08;0.60;;;18.60;45.40;20.80;94285.00;;;;10358043;28;45257;-64
2022/05/05 19:44:31;;;;;;;0.80;0.70;;;18.60;45.30;20.80;94295.00;;;;10358357;28;45571;-64
2022/05/05 19:49:52;;;;;;;0.65;0.55;;;18.70;45.40;20.80;94310.00;;;;10357602;28;45265;-64
2022/05/05 20:01:11;;;;;;;0.70;0.70;;;18.60;45.40;20.80;94314.00;;;;10358437;28;45784;-62
2022/05/05 20:01:13;;;;;;;0.90;0.70;;;18.60;45.30;20.80;94320.00;;;;10358377;28;45288;-63
2022/05/05 20:12:17;;;;;;;1.15;0.60;;;18.60;45.30;20.80;94341.00;;;;10358206;28;45506;-63
2022/05/05 20:17:39;;;;;;;0.80;0.60;;;18.60;45.20;20.80;94337.00;;;;10357915;28;45123;-63
2022/05/05 20:23:00;;;;;;;0.93;0.57;;;18.60;45.20;20.70;94345.00;;;;10357287;28;45381;-62
2022/05/05 20:28:22;;;;;;;0.60;0.50;;;18.60;45.30;20.70;94331.00;;;;10357010;28;45689;-63
2022/05/05 20:33:43;;;;;;;0.73;0.63;;;18.50;45.20;20.70;94335.00;;;;10357918;28;45174;-63
2022/05/05 20:39:06;;;;;;;0.63;0.50;;;18.50;45.20;20.70;94339.00;;;;10357028;28;45690;-63
2022/05/05 20:44:26;;;;;;;0.85;0.60;;;18.50;45.20;20.70;94336.00;;;;10357426;28;45166;-64
2022/05/05 20:49:48;;;;;;;1.42;0.60;;;18.50;45.30;20.60;94341.00;;;;10356950;28;45790;-62
2022/05/05 20:55:09;;;;;;;1.05;0.57;;;18.40;45.30;20.60;94343.00;;;;10357118;28;45794;-62
2022/05/05 21:00:29;;;;;;;0.40;0.40;;;18.40;45.30;20.60;94337.00;;;;10356653;28;45183;-63
2022/05/05 21:05:51;;;;;;;0.52;0.50;;;18.40;45.30;20.50;94346.00;;;;10356470;28;45185;-63
2022/05/05 21:11:12;;;;;;;0.38;0.38;;;18.30;45.30;20.50;94347.00;;;;10355704;28;45248;-63
2022/05/05 21:16:32;;;;;;;0.55;0.50;;;18.30;45.30;20.50;94345.00;;;;10356301;28;45257;-63
2022/05/05 21:27:33;;;;;;;0.60;0.50;;;18.20;45.30;20.40;94348.00;;;;10355987;28;45769;-63
2022/05/05 21:32:53;;;;;;;0.75;0.50;;;18.20;45.40;20.40;94341.00;;;;10355441;28;45372;-63
2022/05/05 21:38:15;;;;;;;0.30;0.30;;;18.20;45.30;20.40;94329.00;;;;10354685;28;45771;-63
2022/05/05 21:43:37;;;;;;;0.40;0.40;;;18.20;45.30;20.40;94343.00;;;;10355661;28;46007;-63
2022/05/05 21:48:57;;;;;;;0.73;0.43;;;18.10;45.40;20.40;94340.00;;;;10354956;28;45145;-63
2022/05/05 21:54:19;;;;;;;0.45;0.38;;;18.10;45.30;20.30;94309.00;;;;10354985;28;45117;-63
2022/05/05 21:59:39;;;;;;;0.77;0.40;;;18.10;45.30;20.30;94317.00;;;;10354202;28;45167;-62
2022/05/05 22:05:00;;;;;;;0.50;0.50;;;18.10;45.40;20.30;94323.00;;;;10353628;28;45191;-62
2022/05/05 22:10:22;;;;;;;0.88;0.50;;;18.10;45.40;20.30;94314.00;;;;10353500;28;45206;-62
2022/05/05 22:15:42;;;;;;;0.80;0.45;;;18.00;45.30;20.20;94319.00;;;;10353327;28;45234;-63
2022/05/05 22:21:03;;;;;;;0.60;0.50;;;18.00;45.30;20.20;94321.00;;;;10353657;28;45424;-63
2022/05/05 22:26:25;;;;;;;0.90;0.40;;;18.00;45.40;20.20;94308.00;;;;10352888;28;45278;-63
2022/05/05 22:31:46;;;;;;;0.40;0.40;;;18.00;45.40;20.20;94309.00;;;;10352876;28;45207;-62
2022/05/05 22:37:07;;;;;;;0.63;0.40;;;18.00;45.40;20.20;94327.00;;;;10353028;28;45291;-62
2022/05/05 22:42:29;;;;;;;0.73;0.47;;;18.00;45.40;20.10;94313.00;;;;10352788;28;45191;-64
2022/05/05 22:47:49;;;;;;;1.27;0.40;;;17.90;45.30;20.10;94327.00;;;;10353288;28;45788;-63
2022/05/05 22:53:10;;;;;;;0.75;0.50;;;17.90;45.30;20.10;94322.00;;;;10359927;28;45454;-63
2022/05/05 22:58:32;;;;;;;1.08;0.50;;;17.90;45.30;20.10;94325.00;;;;10359603;28;45433;-62
2022/05/05 23:03:52;;;;;;;0.90;0.43;;;17.90;45.30;20.10;94306.00;;;;10359863;28;45294;-62
2022/05/05 23:09:13;;;;;;;0.50;0.50;;;17.90;45.30;20.00;94329.00;;;;10358888;28;45234;-63
2022/05/05 23:14:35;;;;;;;0.73;0.50;;;17.90;45.40;20.00;94331.00;;;;10358922;28;45202;-63
2022/05/05 23:19:55;;;;;;;0.50;0.40;;;17.80;45.30;20.00;94318.00;;;;10358874;28;45884;-63
2022/05/05 23:25:16;;;;;;;0.40;0.40;;;17.80;45.30;20.00;94319.00;;;;10358526;28;45783;-63
2022/05/05 23:30:38;;;;;;;0.60;0.60;;;17.80;45.40;20.00;94324.00;;;;10429987;22;45683;-63
2022/05/05 23:41:38;;;;;;;0.40;0.40;;;17.80;45.40;20.00;94313.00;;;;10440984;28;45086;-62
2022/05/05 23:47:00;;;;;;;0.65;0.50;;;17.80;45.40;20.00;94317.00;;;;10440441;28;45772;-62
2022/05/05 23:52:20;;;;;;;0.38;0.38;;;17.80;45.40;19.90;94312.00;;;;10440287;28;45660;-63
2022/05/05 23:57:42;;;;;;;0.40;0.40;;;17.70;45.30;19.90;94306.00;;;;10439905;28;45239;-63
